createdAt,value
2019-04-25T00:01:14.145Z,36.60
2019-04-25T00:03:43.682Z,35.96
2019-04-25T00:06:13.325Z,36.31
2019-04-25T00:08:43.070Z,34.82
2019-04-25T00:11:12.392Z,36.90
2019-04-25T00:13:41.901Z,35.78
2019-04-25T00:16:11.672Z,34.74
2019-04-25T00:18:41.624Z,33.60
2019-04-25T00:21:12.228Z,34.27
2019-04-25T00:23:42.971Z,34.39
2019-04-25T00:26:22.540Z,33.96
2019-04-25T00:28:52.411Z,33.63
2019-04-25T00:31:22.059Z,33.96
2019-04-25T00:33:52.496Z,33.59
2019-04-25T00:36:21.833Z,33.11
2019-04-25T00:38:52.004Z,32.52
2019-04-25T00:41:21.376Z,33.24
2019-04-25T00:43:51.712Z,32.95
2019-04-25T00:46:20.430Z,33.39
2019-04-25T00:48:49.802Z,32.75
2019-04-25T00:51:18.625Z,32.84
2019-04-25T00:53:47.127Z,32.61
2019-04-25T00:56:15.638Z,32.85
2019-04-25T00:58:52.900Z,33.21
2019-04-25T01:01:35.348Z,33.88
2019-04-25T01:04:03.901Z,33.92
2019-04-25T01:06:32.668Z,33.36
2019-04-25T01:09:01.601Z,32.97
2019-04-25T01:11:31.405Z,33.94
2019-04-25T01:13:59.969Z,33.65
2019-04-25T01:16:28.484Z,32.77
2019-04-25T01:18:56.992Z,32.00
2019-04-25T01:21:25.563Z,31.89
2019-04-25T01:23:54.530Z,31.66
2019-04-25T01:26:23.966Z,32.09
2019-04-25T01:28:54.074Z,31.80
2019-04-25T01:31:24.907Z,31.76
2019-04-25T01:33:54.606Z,31.89
2019-04-25T01:36:31.141Z,32.24
2019-04-25T01:39:16.368Z,32.18
2019-04-25T01:41:54.929Z,32.08
2019-04-25T01:44:24.473Z,31.74
2019-04-25T01:46:54.485Z,32.12
2019-04-25T01:49:23.910Z,32.21
2019-04-25T01:51:54.437Z,32.66
2019-04-25T01:54:23.804Z,32.63
2019-04-25T01:56:54.657Z,32.30
2019-04-25T01:59:23.768Z,31.99
2019-04-25T02:01:54.343Z,32.22
2019-04-25T02:04:23.226Z,32.53
2019-04-25T02:06:53.674Z,32.92
2019-04-25T02:09:23.569Z,32.46
2019-04-25T02:12:04.810Z,33.25
2019-04-25T02:14:33.718Z,32.92
2019-04-25T02:17:04.340Z,33.10
2019-04-25T02:19:33.926Z,33.65
2019-04-25T02:22:04.004Z,33.73
2019-04-25T02:24:33.852Z,33.83
2019-04-25T02:27:04.571Z,33.93
2019-04-25T02:29:33.302Z,34.02
2019-04-25T02:32:07.882Z,32.42
2019-04-25T02:34:34.624Z,32.30
2019-04-25T02:37:08.371Z,33.08
2019-04-25T02:39:34.809Z,33.55
2019-04-25T02:42:06.853Z,33.18
2019-04-25T02:44:35.598Z,32.88
2019-04-25T02:47:14.903Z,32.35
2019-04-25T02:49:48.052Z,32.47
2019-04-25T02:52:20.939Z,32.49
2019-04-25T02:54:49.447Z,33.15
2019-04-25T02:57:18.046Z,32.76
2019-04-25T02:59:46.530Z,32.73
2019-04-25T03:02:15.722Z,32.60
2019-04-25T03:04:44.673Z,33.12
2019-04-25T03:07:16.813Z,32.91
2019-04-25T03:09:45.154Z,33.53
2019-04-25T03:12:26.653Z,33.33
2019-04-25T03:14:44.757Z,32.85
2019-04-25T03:17:14.282Z,32.59
2019-04-25T03:20:06.672Z,32.82
2019-04-25T03:22:34.467Z,32.67
2019-04-25T03:25:06.853Z,32.78
2019-04-25T03:27:34.050Z,33.14
2019-04-25T03:30:04.448Z,32.52
2019-04-25T03:32:35.509Z,32.80
2019-04-25T03:35:04.513Z,32.68
2019-04-25T03:37:35.183Z,31.58
2019-04-25T03:40:06.517Z,31.64
2019-04-25T03:42:35.217Z,31.21
2019-04-25T03:45:05.053Z,31.39
2019-04-25T03:47:34.580Z,31.89
2019-04-25T03:50:05.866Z,31.64
2019-04-25T03:52:34.947Z,31.97
2019-04-25T03:55:05.136Z,31.61
2019-04-25T03:57:34.027Z,32.35
2019-04-25T04:00:05.363Z,32.08
2019-04-25T04:02:34.413Z,32.19
2019-04-25T04:05:05.623Z,32.36
2019-04-25T04:07:33.697Z,32.42
2019-04-25T04:10:04.538Z,32.58
2019-04-25T04:12:33.920Z,32.97
2019-04-25T04:15:04.775Z,32.78
2019-04-25T04:17:44.098Z,32.80
2019-04-25T04:20:15.898Z,32.99
2019-04-25T04:22:46.114Z,33.69
2019-04-25T04:25:16.228Z,32.90
2019-04-25T04:27:44.741Z,32.45
2019-04-25T04:30:15.357Z,32.60
2019-04-25T04:32:44.183Z,32.41
2019-04-25T04:35:14.471Z,32.64
2019-04-25T04:37:43.194Z,32.44
2019-04-25T04:40:11.900Z,32.14
2019-04-25T04:42:40.415Z,31.87
2019-04-25T04:45:10.141Z,32.61
2019-04-25T04:47:38.679Z,32.99
2019-04-25T04:50:08.945Z,32.35
2019-04-25T04:52:37.491Z,32.55
2019-04-25T04:55:09.772Z,32.69
2019-04-25T04:57:37.067Z,31.78
2019-04-25T05:00:07.497Z,32.32
2019-04-25T05:02:37.783Z,32.33
2019-04-25T05:05:24.790Z,32.64
2019-04-25T05:07:54.978Z,32.26
2019-04-25T05:10:24.561Z,31.88
2019-04-25T05:12:53.374Z,32.71
2019-04-25T05:15:22.998Z,32.46
2019-04-25T05:17:52.069Z,31.78
2019-04-25T05:20:20.722Z,32.51
2019-04-25T05:22:49.217Z,32.70
2019-04-25T05:25:19.048Z,32.57
2019-04-25T05:28:00.121Z,32.70
2019-04-25T05:30:21.214Z,32.99
2019-04-25T05:32:49.825Z,33.38
2019-04-25T05:35:18.434Z,33.45
2019-04-25T05:37:46.958Z,32.66
2019-04-25T05:40:16.248Z,32.46
2019-04-25T05:42:59.380Z,32.22
2019-04-25T05:45:29.670Z,32.67
2019-04-25T05:47:58.226Z,31.67
2019-04-25T05:50:26.739Z,30.99
2019-04-25T05:52:55.295Z,31.19
2019-04-25T05:55:25.158Z,31.25
2019-04-25T05:58:06.496Z,30.64
2019-04-25T06:00:35.011Z,29.99
2019-04-25T06:03:03.863Z,30.58
2019-04-25T06:05:33.534Z,30.39
2019-04-25T06:08:04.106Z,29.76
2019-04-25T06:10:50.339Z,28.21
2019-04-25T06:13:35.436Z,28.96
2019-04-25T06:16:05.751Z,29.78
2019-04-25T06:18:51.052Z,27.93
2019-04-25T06:21:20.027Z,28.84
2019-04-25T06:23:50.244Z,28.99
2019-04-25T06:26:32.751Z,28.07
2019-04-25T06:28:57.067Z,27.21
2019-04-25T06:31:19.880Z,27.59
2019-04-25T06:33:48.528Z,28.12
2019-04-25T06:36:17.164Z,28.13
2019-04-25T06:38:45.650Z,28.09
2019-04-25T06:41:14.165Z,27.35
2019-04-25T06:43:44.415Z,27.32
2019-04-25T06:46:24.811Z,28.22
2019-04-25T06:48:58.304Z,28.06
2019-04-25T06:51:46.072Z,27.98
2019-04-25T06:54:14.728Z,27.31
2019-04-25T06:56:43.508Z,27.60
2019-04-25T06:59:13.646Z,27.03
2019-04-25T07:01:43.907Z,26.46
2019-04-25T07:04:13.939Z,26.90
2019-04-25T07:06:43.551Z,27.43
2019-04-25T07:09:14.597Z,26.88
2019-04-25T07:11:44.055Z,27.08
2019-04-25T07:14:14.230Z,26.75
2019-04-25T07:16:43.390Z,27.18
2019-04-25T07:19:12.154Z,26.90
2019-04-25T07:21:40.633Z,26.22
2019-04-25T07:24:09.668Z,26.78
2019-04-25T07:26:45.924Z,27.04
2019-04-25T07:29:19.201Z,26.28
2019-04-25T07:31:53.971Z,26.46
2019-04-25T07:34:25.271Z,27.52
2019-04-25T07:36:54.494Z,26.83
2019-04-25T07:39:23.643Z,26.37
2019-04-25T07:41:54.002Z,27.25
2019-04-25T07:44:35.348Z,26.74
2019-04-25T07:46:54.240Z,26.96
2019-04-25T07:49:23.447Z,27.49
2019-04-25T07:51:53.686Z,25.92
2019-04-25T07:54:22.241Z,27.14
2019-04-25T07:56:50.806Z,26.37
2019-04-25T07:59:19.344Z,26.81
2019-04-25T08:01:47.843Z,26.41
2019-04-25T08:04:16.352Z,26.99
2019-04-25T08:06:44.855Z,27.52
2019-04-25T08:09:15.430Z,26.79
2019-04-25T08:11:44.145Z,27.01
2019-04-25T08:14:17.117Z,27.41
2019-04-25T08:16:53.840Z,27.08
2019-04-25T08:19:24.842Z,27.32
2019-04-25T08:21:54.967Z,27.07
2019-04-25T08:24:24.531Z,26.92
2019-04-25T08:26:53.481Z,26.79
2019-04-25T08:29:25.229Z,26.95
2019-04-25T08:31:53.655Z,26.76
2019-04-25T08:34:24.224Z,27.22
2019-04-25T08:36:54.327Z,27.26
2019-04-25T08:39:24.081Z,27.02
2019-04-25T08:41:53.966Z,27.25
2019-04-25T08:44:24.114Z,27.44
2019-04-25T08:46:53.570Z,27.29
2019-04-25T08:49:24.048Z,27.19
2019-04-25T08:51:55.811Z,26.97
2019-04-25T08:54:29.049Z,27.72
2019-04-25T08:56:59.293Z,27.52
2019-04-25T08:59:52.264Z,27.86
2019-04-25T09:02:34.938Z,27.19
2019-04-25T09:05:21.918Z,26.89
2019-04-25T09:07:50.531Z,27.28
2019-04-25T09:10:19.099Z,26.91
2019-04-25T09:12:47.592Z,26.82
2019-04-25T09:15:16.292Z,26.41
2019-04-25T09:17:47.051Z,26.67
2019-04-25T09:20:15.637Z,26.67
2019-04-25T09:22:44.631Z,26.30
2019-04-25T09:25:14.535Z,26.17
2019-04-25T09:27:43.796Z,26.21
2019-04-25T09:30:14.357Z,26.02
2019-04-25T09:32:44.614Z,25.67
2019-04-25T09:35:14.187Z,26.02
2019-04-25T09:37:44.818Z,26.39
2019-04-25T09:40:14.428Z,26.46
2019-04-25T09:42:44.774Z,26.05
2019-04-25T09:45:33.342Z,25.23
2019-04-25T09:48:09.468Z,25.05
2019-04-25T09:50:44.218Z,24.92
2019-04-25T09:53:21.841Z,25.18
2019-04-25T09:56:01.647Z,24.53
2019-04-25T09:58:34.455Z,24.95
2019-04-25T10:01:07.323Z,24.97
2019-04-25T10:03:36.631Z,24.88
2019-04-25T10:06:05.744Z,25.15
2019-04-25T10:08:34.391Z,25.18
2019-04-25T10:11:04.074Z,25.67
2019-04-25T10:13:33.705Z,25.76
2019-04-25T10:16:04.884Z,25.68
2019-04-25T10:18:34.147Z,25.68
2019-04-25T10:21:04.759Z,25.68
2019-04-25T10:23:34.286Z,26.48
2019-04-25T10:26:03.833Z,26.63
2019-04-25T10:28:33.598Z,26.67
2019-04-25T10:31:03.598Z,26.40
2019-04-25T10:33:32.366Z,26.53
2019-04-25T10:36:01.320Z,27.23
2019-04-25T10:38:30.280Z,27.00
2019-04-25T10:40:58.982Z,26.88
2019-04-25T10:43:27.550Z,27.10
2019-04-25T10:45:56.111Z,27.38
2019-04-25T10:48:24.630Z,27.78
2019-04-25T10:50:53.857Z,27.38
2019-04-25T10:53:25.353Z,26.87
2019-04-25T10:55:53.790Z,26.62
2019-04-25T10:58:22.436Z,26.61
2019-04-25T11:00:53.063Z,27.23
2019-04-25T11:03:33.320Z,26.61
2019-04-25T11:06:03.966Z,26.59
2019-04-25T11:08:34.006Z,26.71
2019-04-25T11:11:03.800Z,26.96
2019-04-25T11:13:33.958Z,27.57
2019-04-25T11:16:03.542Z,26.48
2019-04-25T11:18:33.884Z,27.35
2019-04-25T11:21:04.285Z,27.37
2019-04-25T11:23:32.943Z,26.77
2019-04-25T11:26:01.607Z,27.68
2019-04-25T11:28:30.097Z,26.35
2019-04-25T11:30:58.692Z,26.90
2019-04-25T11:33:27.746Z,27.38
2019-04-25T11:35:56.579Z,27.62
2019-04-25T11:38:43.503Z,27.02
2019-04-25T11:41:14.198Z,27.32
2019-04-25T11:43:45.371Z,27.25
2019-04-25T11:46:14.159Z,27.54
2019-04-25T11:48:44.197Z,27.55
2019-04-25T11:51:13.854Z,27.46
2019-04-25T11:53:44.074Z,27.97
2019-04-25T11:56:13.757Z,27.53
2019-04-25T11:58:45.099Z,27.67
2019-04-25T12:01:14.221Z,27.11
2019-04-25T12:03:45.099Z,26.48
2019-04-25T12:06:14.158Z,26.21
2019-04-25T12:08:44.089Z,25.48
2019-04-25T12:11:13.902Z,25.41
2019-04-25T12:13:45.681Z,25.29
2019-04-25T12:16:14.439Z,25.46
2019-04-25T12:18:44.772Z,25.57
2019-04-25T12:21:13.648Z,25.40
2019-04-25T12:23:45.039Z,25.31
2019-04-25T12:26:14.231Z,25.33
2019-04-25T12:28:42.836Z,26.55
2019-04-25T12:31:13.120Z,25.43
2019-04-25T12:33:43.365Z,25.66
2019-04-25T12:36:13.554Z,25.61
2019-04-25T12:38:43.865Z,25.79
2019-04-25T12:41:12.531Z,25.68
2019-04-25T12:43:43.866Z,26.01
2019-04-25T12:46:17.043Z,25.92
2019-04-25T12:48:46.036Z,25.40
2019-04-25T12:51:14.962Z,26.05
2019-04-25T12:53:43.856Z,26.37
2019-04-25T12:56:12.479Z,26.06
2019-04-25T12:58:41.270Z,26.29
2019-04-25T13:01:10.615Z,26.73
2019-04-25T13:03:39.174Z,27.10
2019-04-25T13:06:07.770Z,25.65
2019-04-25T13:08:36.290Z,25.41
2019-04-25T13:11:08.545Z,25.62
2019-04-25T13:13:35.317Z,26.17
2019-04-25T13:16:04.402Z,25.97
2019-04-25T13:18:32.940Z,24.82
2019-04-25T13:21:01.478Z,25.24
2019-04-25T13:23:31.960Z,25.43
2019-04-25T13:26:01.573Z,25.94
2019-04-25T13:28:40.635Z,26.06
2019-04-25T13:31:12.950Z,26.17
2019-04-25T13:33:43.324Z,26.28
2019-04-25T13:36:13.472Z,26.71
2019-04-25T13:38:41.944Z,27.04
2019-04-25T13:41:10.535Z,26.81
2019-04-25T13:43:39.238Z,26.69
2019-04-25T13:46:07.887Z,26.76
2019-04-25T13:48:36.525Z,27.06
2019-04-25T13:51:05.279Z,26.90
2019-04-25T13:53:33.783Z,27.35
2019-04-25T13:56:04.613Z,26.87
2019-04-25T13:58:34.192Z,27.39
2019-04-25T14:01:12.432Z,27.71
2019-04-25T14:03:34.042Z,27.31
2019-04-25T14:06:03.916Z,27.73
2019-04-25T14:08:33.518Z,27.79
2019-04-25T14:11:04.928Z,27.13
2019-04-25T14:13:32.429Z,27.06
2019-04-25T14:16:17.519Z,26.42
2019-04-25T14:19:03.614Z,26.38
2019-04-25T14:21:33.518Z,25.91
2019-04-25T14:24:02.056Z,26.58
2019-04-25T14:26:31.292Z,26.98
2019-04-25T14:28:59.905Z,27.07
2019-04-25T14:31:40.606Z,26.92
2019-04-25T14:33:58.593Z,26.57
2019-04-25T14:36:28.580Z,26.50
2019-04-25T14:38:57.167Z,26.46
2019-04-25T14:41:26.081Z,27.04
2019-04-25T14:43:54.814Z,27.47
2019-04-25T14:46:23.312Z,27.03
2019-04-25T14:48:51.822Z,26.90
2019-04-25T14:51:20.393Z,27.35
2019-04-25T14:53:48.924Z,27.45
2019-04-25T14:56:28.060Z,27.12
2019-04-25T14:58:56.544Z,26.89
2019-04-25T15:01:26.065Z,27.41
2019-04-25T15:03:54.566Z,28.11
2019-04-25T15:06:23.412Z,27.23
2019-04-25T15:08:52.900Z,27.18
2019-04-25T15:11:23.154Z,27.47
2019-04-25T15:13:51.731Z,26.96
2019-04-25T15:16:20.316Z,26.93
2019-04-25T15:18:48.871Z,27.42
2019-04-25T15:21:18.806Z,27.68
2019-04-25T15:23:59.346Z,27.16
2019-04-25T15:26:17.627Z,28.22
2019-04-25T15:28:46.083Z,28.05
2019-04-25T15:31:14.712Z,27.57
2019-04-25T15:33:43.197Z,27.56
2019-04-25T15:36:28.591Z,27.73
2019-04-25T15:39:04.416Z,27.83
2019-04-25T15:41:34.894Z,27.58
2019-04-25T15:44:20.956Z,27.92
2019-04-25T15:46:53.862Z,27.84
2019-04-25T15:49:22.364Z,28.09
2019-04-25T15:51:50.836Z,28.33
2019-04-25T15:54:19.494Z,28.83
2019-04-25T15:56:48.057Z,28.47
2019-04-25T15:59:16.643Z,28.28
2019-04-25T16:01:45.239Z,29.01
2019-04-25T16:04:13.789Z,29.65
2019-04-25T16:06:42.259Z,29.56
2019-04-25T16:09:10.748Z,29.50
2019-04-25T16:11:39.262Z,29.33
2019-04-25T16:14:07.859Z,29.77
2019-04-25T16:16:36.352Z,29.18
2019-04-25T16:19:05.094Z,29.32
2019-04-25T16:21:33.773Z,29.27
2019-04-25T16:24:02.401Z,28.81
2019-04-25T16:26:31.460Z,29.37
2019-04-25T16:29:00.016Z,29.99
2019-04-25T16:31:29.194Z,29.69
2019-04-25T16:33:57.820Z,29.71
2019-04-25T16:36:26.352Z,29.50
2019-04-25T16:38:54.849Z,29.01
2019-04-25T16:41:23.663Z,29.28
2019-04-25T16:43:53.808Z,29.29
2019-04-25T16:46:23.196Z,28.88
2019-04-25T16:48:51.777Z,28.70
2019-04-25T16:51:20.327Z,28.27
2019-04-25T16:53:48.807Z,29.11
2019-04-25T16:56:17.314Z,29.97
2019-04-25T16:58:45.891Z,29.29
2019-04-25T17:01:14.656Z,29.80
2019-04-25T17:03:43.681Z,29.75
2019-04-25T17:06:12.326Z,29.96
2019-04-25T17:08:40.819Z,29.99
2019-04-25T17:11:09.770Z,30.40
2019-04-25T17:13:39.893Z,30.97
2019-04-25T17:16:25.711Z,31.29
2019-04-25T17:18:55.889Z,30.81
2019-04-25T17:21:24.436Z,31.12
2019-04-25T17:23:52.897Z,30.64
2019-04-25T17:26:21.956Z,30.55
2019-04-25T17:28:52.089Z,30.97
2019-04-25T17:31:28.460Z,31.13
2019-04-25T17:34:10.766Z,30.69
2019-04-25T17:36:46.719Z,31.85
2019-04-25T17:39:35.914Z,31.40
2019-04-25T17:42:04.546Z,31.43
2019-04-25T17:44:32.991Z,31.27
2019-04-25T17:47:06.412Z,30.49
2019-04-25T17:49:32.817Z,30.53
2019-04-25T17:52:01.459Z,31.10
2019-04-25T17:54:30.025Z,31.33
2019-04-25T17:56:58.516Z,31.51
2019-04-25T17:59:27.177Z,31.47
2019-04-25T18:01:55.738Z,32.26
2019-04-25T18:04:24.346Z,31.94
2019-04-25T18:06:54.420Z,31.51
2019-04-25T18:09:23.371Z,31.71
2019-04-25T18:11:51.964Z,31.58
2019-04-25T18:14:20.504Z,32.02
2019-04-25T18:16:49.851Z,32.27
2019-04-25T18:19:32.268Z,32.20
2019-04-25T18:22:02.677Z,31.22
2019-04-25T18:24:48.839Z,32.00
2019-04-25T18:27:19.043Z,31.41
2019-04-25T18:29:47.682Z,31.76
2019-04-25T18:32:16.149Z,32.26
2019-04-25T18:34:49.270Z,31.96
2019-04-25T18:37:37.152Z,31.64
2019-04-25T18:40:20.592Z,31.75
2019-04-25T18:42:59.689Z,32.11
2019-04-25T18:45:29.927Z,32.58
2019-04-25T18:47:58.469Z,32.89
2019-04-25T18:50:28.680Z,33.00
2019-04-25T18:53:14.655Z,33.02
2019-04-25T18:55:50.312Z,33.45
2019-04-25T18:58:36.195Z,33.69
2019-04-25T19:01:22.631Z,33.58
2019-04-25T19:03:58.758Z,33.44
2019-04-25T19:06:28.007Z,33.48
2019-04-25T19:08:56.557Z,33.69
2019-04-25T19:11:25.119Z,33.75
2019-04-25T19:13:53.680Z,34.14
2019-04-25T19:16:22.221Z,34.28
2019-04-25T19:18:51.611Z,34.16
2019-04-25T19:21:20.278Z,33.91
2019-04-25T19:23:48.808Z,34.48
2019-04-25T19:26:17.419Z,34.91
2019-04-25T19:28:46.897Z,35.28
2019-04-25T19:31:15.372Z,35.15
2019-04-25T19:33:43.932Z,35.03
2019-04-25T19:36:12.469Z,34.40
2019-04-25T19:38:41.912Z,34.58
2019-04-25T19:41:14.932Z,34.60
2019-04-25T19:43:56.571Z,34.70
2019-04-25T19:46:38.439Z,35.13
2019-04-25T19:49:07.398Z,34.55
2019-04-25T19:51:36.213Z,34.61
2019-04-25T19:54:06.176Z,34.69
2019-04-25T19:56:35.217Z,34.78
2019-04-25T19:59:03.973Z,35.10
2019-04-25T20:01:32.598Z,35.01
2019-04-25T20:04:11.887Z,35.26
2019-04-25T20:06:57.746Z,36.00
2019-04-25T20:09:39.407Z,35.79
2019-04-25T20:12:07.916Z,35.23
2019-04-25T20:14:36.398Z,36.25
2019-04-25T20:17:04.958Z,36.85
2019-04-25T20:19:33.505Z,36.40
2019-04-25T20:22:01.957Z,36.14
2019-04-25T20:24:30.407Z,35.76
2019-04-25T20:26:58.923Z,36.21
2019-04-25T20:29:27.554Z,36.88
2019-04-25T20:31:56.032Z,37.23
2019-04-25T20:34:24.526Z,37.85
2019-04-25T20:36:53.693Z,39.54
2019-04-25T20:39:22.151Z,38.65
2019-04-25T20:41:50.656Z,38.53
2019-04-25T20:44:19.168Z,40.08
2019-04-25T20:46:48.478Z,41.58
2019-04-25T20:49:17.011Z,41.96
2019-04-25T20:51:47.029Z,42.48
2019-04-25T20:54:15.604Z,43.31
2019-04-25T20:56:44.187Z,42.21
2019-04-25T20:59:12.644Z,42.72
2019-04-25T21:01:41.233Z,42.84
2019-04-25T21:04:13.344Z,42.14
2019-04-25T21:06:41.958Z,42.29
2019-04-25T21:09:10.527Z,42.13
2019-04-25T21:11:39.045Z,42.61
2019-04-25T21:14:09.207Z,43.22
2019-04-25T21:16:45.257Z,41.97
2019-04-25T21:19:23.990Z,42.71
2019-04-25T21:21:52.546Z,43.72
2019-04-25T21:24:21.009Z,43.20
2019-04-25T21:26:50.227Z,42.79
2019-04-25T21:29:19.868Z,43.08
2019-04-25T21:31:48.357Z,43.04
2019-04-25T21:34:25.799Z,42.60
2019-04-25T21:36:47.158Z,42.47
2019-04-25T21:39:29.408Z,42.39
2019-04-25T21:41:59.832Z,43.19
2019-04-25T21:44:28.726Z,43.35
2019-04-25T21:46:57.198Z,43.71
2019-04-25T21:49:26.769Z,43.43
2019-04-25T21:51:55.265Z,44.36
2019-04-25T21:54:23.743Z,44.57
2019-04-25T21:56:53.291Z,44.62
2019-04-25T21:59:22.720Z,45.91
2019-04-25T22:01:51.351Z,46.92
2019-04-25T22:04:19.823Z,46.71
2019-04-25T22:06:48.682Z,47.05
2019-04-25T22:09:21.572Z,46.72
2019-04-25T22:11:50.246Z,45.92
2019-04-25T22:14:19.077Z,46.14
2019-04-25T22:16:47.879Z,46.12
2019-04-25T22:19:16.858Z,45.24
2019-04-25T22:21:45.656Z,45.05
2019-04-25T22:24:14.822Z,45.04
2019-04-25T22:26:45.003Z,44.27
2019-04-25T22:29:13.551Z,43.40
2019-04-25T22:31:59.611Z,43.58
2019-04-25T22:34:32.928Z,44.49
2019-04-25T22:37:02.088Z,43.14
2019-04-25T22:39:30.636Z,42.98
2019-04-25T22:41:59.750Z,43.09
2019-04-25T22:44:29.713Z,43.71
2019-04-25T22:46:58.666Z,42.24
2019-04-25T22:49:27.204Z,42.30
2019-04-25T22:51:55.688Z,42.46
2019-04-25T22:54:25.149Z,42.27
2019-04-25T22:56:53.650Z,42.05
2019-04-25T22:59:22.399Z,42.62
2019-04-25T23:02:09.589Z,44.42
2019-04-25T23:05:05.500Z,47.80
2019-04-25T23:07:28.058Z,51.64
2019-04-25T23:09:56.721Z,54.53
2019-04-25T23:12:25.487Z,57.35
2019-04-25T23:14:53.964Z,58.12
2019-04-25T23:17:22.442Z,59.71
2019-04-25T23:19:51.109Z,62.03
2019-04-25T23:22:19.597Z,63.34
2019-04-25T23:25:01.606Z,63.57
2019-04-25T23:27:31.799Z,63.86
2019-04-25T23:30:00.267Z,63.93
2019-04-25T23:32:29.060Z,63.93
2019-04-25T23:34:57.566Z,65.11
2019-04-25T23:37:26.133Z,66.57
2019-04-25T23:39:54.670Z,66.71
2019-04-25T23:42:23.159Z,67.98
2019-04-25T23:44:51.893Z,68.84
2019-04-25T23:47:20.392Z,69.06
2019-04-25T23:49:48.865Z,69.39
2019-04-25T23:52:17.692Z,69.78
2019-04-25T23:54:46.263Z,71.23
2019-04-25T23:57:15.490Z,72.17
2019-04-25T23:59:44.225Z,73.05
